sensor_id;sensor_type;location;lat;lon;timestamp;pressure;altitude;pressure_sealevel;temperature;humidity
20394;BME280;10356;50.544;9.642;2023-02-21T00:02:43;98688.13;;;8.28;97.31
20394;BME280;10356;50.544;9.642;2023-02-21T00:05:27;98683.19;;;8.24;97.54
20394;BME280;10356;50.544;9.642;2023-02-21T00:08:11;98683.25;;;8.22;98.11
20394;BME280;10356;50.544;9.642;2023-02-21T00:10:56;98677.56;;;8.31;97.38
20394;BME280;10356;50.544;9.642;2023-02-21T00:13:41;98688.31;;;8.25;98.02
20394;BME280;10356;50.544;9.642;2023-02-21T00:16:25;98680.59;;;8.24;98.20
20394;BME280;10356;50.544;9.642;2023-02-21T00:19:10;98680.97;;;8.18;98.58
20394;BME280;10356;50.544;9.642;2023-02-21T00:21:54;98684.22;;;8.21;98.60
20394;BME280;10356;50.544;9.642;2023-02-21T00:24:38;98689.66;;;8.17;98.66
20394;BME280;10356;50.544;9.642;2023-02-21T00:27:23;98690.78;;;8.13;98.93
20394;BME280;10356;50.544;9.642;2023-02-21T00:30:10;98687.06;;;8.17;99.14
20394;BME280;10356;50.544;9.642;2023-02-21T00:32:54;98686.91;;;8.20;99.10
20394;BME280;10356;50.544;9.642;2023-02-21T00:35:39;98684.22;;;8.21;98.57
20394;BME280;10356;50.544;9.642;2023-02-21T00:38:23;98672.06;;;8.22;98.73
20394;BME280;10356;50.544;9.642;2023-02-21T00:41:07;98675.31;;;8.11;99.08
20394;BME280;10356;50.544;9.642;2023-02-21T00:43:52;98669.28;;;8.11;99.64
20394;BME280;10356;50.544;9.642;2023-02-21T00:46:37;98671.34;;;8.06;99.52
20394;BME280;10356;50.544;9.642;2023-02-21T00:49:21;98660.22;;;8.04;99.80
20394;BME280;10356;50.544;9.642;2023-02-21T00:52:06;98659.75;;;7.97;99.79
20394;BME280;10356;50.544;9.642;2023-02-21T00:54:50;98657.25;;;7.96;99.91
20394;BME280;10356;50.544;9.642;2023-02-21T00:57:34;98652.69;;;7.99;100.00
20394;BME280;10356;50.544;9.642;2023-02-21T01:00:21;98646.31;;;7.91;100.00
20394;BME280;10356;50.544;9.642;2023-02-21T01:03:07;98653.16;;;7.92;100.00
20394;BME280;10356;50.544;9.642;2023-02-21T01:05:52;98647.41;;;7.87;100.00
20394;BME280;10356;50.544;9.642;2023-02-21T01:08:40;98646.56;;;7.86;100.00
20394;BME280;10356;50.544;9.642;2023-02-21T01:11:24;98640.63;;;7.84;100.00
20394;BME280;10356;50.544;9.642;2023-02-21T01:14:08;98643.53;;;7.80;100.00
20394;BME280;10356;50.544;9.642;2023-02-21T01:16:53;98629.25;;;7.87;100.00
20394;BME280;10356;50.544;9.642;2023-02-21T01:19:38;98634.06;;;7.93;100.00
20394;BME280;10356;50.544;9.642;2023-02-21T01:22:22;98630.63;;;7.92;100.00
20394;BME280;10356;50.544;9.642;2023-02-21T01:25:07;98629.09;;;7.90;100.00
20394;BME280;10356;50.544;9.642;2023-02-21T01:27:52;98635.19;;;7.89;100.00
20394;BME280;10356;50.544;9.642;2023-02-21T01:30:36;98631.56;;;7.91;100.00
20394;BME280;10356;50.544;9.642;2023-02-21T01:33:20;98622.78;;;7.94;100.00
20394;BME280;10356;50.544;9.642;2023-02-21T01:36:07;98632.59;;;7.89;100.00
20394;BME280;10356;50.544;9.642;2023-02-21T01:38:51;98629.09;;;7.90;99.88
20394;BME280;10356;50.544;9.642;2023-02-21T01:41:35;98628.97;;;7.91;100.00
20394;BME280;10356;50.544;9.642;2023-02-21T01:44:33;98628.25;;;7.89;100.00
20394;BME280;10356;50.544;9.642;2023-02-21T01:47:18;98623.31;;;7.85;100.00
20394;BME280;10356;50.544;9.642;2023-02-21T01:50:05;98621.66;;;7.98;99.57
20394;BME280;10356;50.544;9.642;2023-02-21T01:52:52;98620.25;;;7.92;99.30
20394;BME280;10356;50.544;9.642;2023-02-21T01:55:38;98614.25;;;7.92;99.40
20394;BME280;10356;50.544;9.642;2023-02-21T01:58:24;98617.03;;;7.89;99.65
20394;BME280;10356;50.544;9.642;2023-02-21T02:01:11;98619.72;;;7.87;100.00
20394;BME280;10356;50.544;9.642;2023-02-21T02:04:00;98616.28;;;7.87;99.83
20394;BME280;10356;50.544;9.642;2023-02-21T02:06:44;98613.22;;;7.80;100.00
20394;BME280;10356;50.544;9.642;2023-02-21T02:09:30;98612.19;;;7.83;100.00
20394;BME280;10356;50.544;9.642;2023-02-21T02:12:32;98610.72;;;7.79;100.00
20394;BME280;10356;50.544;9.642;2023-02-21T02:15:14;98612.47;;;7.92;99.88
20394;BME280;10356;50.544;9.642;2023-02-21T02:17:54;98618.31;;;7.96;99.74
20394;BME280;10356;50.544;9.642;2023-02-21T02:20:53;98620.72;;;7.85;99.94
20394;BME280;10356;50.544;9.642;2023-02-21T02:23:38;98611.28;;;7.84;100.00
20394;BME280;10356;50.544;9.642;2023-02-21T02:26:30;98609.88;;;7.78;100.00
20394;BME280;10356;50.544;9.642;2023-02-21T02:29:10;98604.78;;;7.77;100.00
20394;BME280;10356;50.544;9.642;2023-02-21T02:31:56;98604.69;;;7.78;100.00
20394;BME280;10356;50.544;9.642;2023-02-21T02:34:35;98603.13;;;7.90;99.83
20394;BME280;10356;50.544;9.642;2023-02-21T02:37:09;98612.19;;;7.83;100.00
20394;BME280;10356;50.544;9.642;2023-02-21T02:39:40;98606.00;;;7.85;99.97
20394;BME280;10356;50.544;9.642;2023-02-21T02:42:21;98608.13;;;7.79;100.00
20394;BME280;10356;50.544;9.642;2023-02-21T02:44:56;98608.50;;;7.87;100.00
20394;BME280;10356;50.544;9.642;2023-02-21T02:47:29;98601.56;;;7.87;99.71
20394;BME280;10356;50.544;9.642;2023-02-21T02:49:58;98600.59;;;7.88;99.65
20394;BME280;10356;50.544;9.642;2023-02-21T02:52:25;98607.00;;;7.83;100.00
20394;BME280;10356;50.544;9.642;2023-02-21T02:54:57;98596.75;;;7.81;100.00
20394;BME280;10356;50.544;9.642;2023-02-21T02:57:24;98591.81;;;7.77;100.00
20394;BME280;10356;50.544;9.642;2023-02-21T02:59:51;98592.56;;;7.79;99.97
20394;BME280;10356;50.544;9.642;2023-02-21T03:02:34;98601.28;;;7.78;100.00
20394;BME280;10356;50.544;9.642;2023-02-21T03:05:16;98592.56;;;7.79;100.00
20394;BME280;10356;50.544;9.642;2023-02-21T03:07:52;98597.75;;;7.79;99.87
20394;BME280;10356;50.544;9.642;2023-02-21T03:10:27;98598.22;;;7.71;100.00
20394;BME280;10356;50.544;9.642;2023-02-21T03:13:02;98601.19;;;7.65;100.00
20394;BME280;10356;50.544;9.642;2023-02-21T03:15:34;98609.03;;;7.63;100.00
20394;BME280;10356;50.544;9.642;2023-02-21T03:18:07;98605.44;;;7.66;100.00
20394;BME280;10356;50.544;9.642;2023-02-21T03:20:37;98603.09;;;7.61;100.00
20394;BME280;10356;50.544;9.642;2023-02-21T03:23:05;98601.09;;;7.67;100.00
20394;BME280;10356;50.544;9.642;2023-02-21T03:25:33;98597.56;;;7.68;100.00
20394;BME280;10356;50.544;9.642;2023-02-21T03:28:00;98592.19;;;7.56;100.00
20394;BME280;10356;50.544;9.642;2023-02-21T03:30:28;98599.22;;;7.54;100.00
20394;BME280;10356;50.544;9.642;2023-02-21T03:32:56;98603.78;;;7.51;100.00
20394;BME280;10356;50.544;9.642;2023-02-21T03:35:23;98601.53;;;7.45;100.00
20394;BME280;10356;50.544;9.642;2023-02-21T03:37:56;98609.19;;;7.32;100.00
20394;BME280;10356;50.544;9.642;2023-02-21T03:40:25;98608.09;;;7.36;100.00
20394;BME280;10356;50.544;9.642;2023-02-21T03:42:54;98606.50;;;7.34;100.00
20394;BME280;10356;50.544;9.642;2023-02-21T03:45:21;98601.22;;;7.35;100.00
20394;BME280;10356;50.544;9.642;2023-02-21T03:47:47;98610.69;;;7.36;100.00
20394;BME280;10356;50.544;9.642;2023-02-21T03:50:14;98615.13;;;7.34;100.00
20394;BME280;10356;50.544;9.642;2023-02-21T03:52:41;98623.25;;;7.28;100.00
20394;BME280;10356;50.544;9.642;2023-02-21T03:55:09;98614.16;;;7.21;100.00
20394;BME280;10356;50.544;9.642;2023-02-21T03:57:35;98610.25;;;7.14;100.00
20394;BME280;10356;50.544;9.642;2023-02-21T04:00:03;98613.22;;;7.08;100.00
20394;BME280;10356;50.544;9.642;2023-02-21T04:02:29;98621.72;;;7.10;100.00
20394;BME280;10356;50.544;9.642;2023-02-21T04:04:56;98627.81;;;7.09;100.00
20394;BME280;10356;50.544;9.642;2023-02-21T04:07:22;98625.56;;;7.19;100.00
20394;BME280;10356;50.544;9.642;2023-02-21T04:09:48;98620.88;;;7.10;100.00
20394;BME280;10356;50.544;9.642;2023-02-21T04:12:16;98631.09;;;6.97;100.00
20394;BME280;10356;50.544;9.642;2023-02-21T04:14:43;98639.50;;;6.87;100.00
20394;BME280;10356;50.544;9.642;2023-02-21T04:17:09;98635.50;;;6.81;100.00
20394;BME280;10356;50.544;9.642;2023-02-21T04:19:36;98635.03;;;6.74;100.00
20394;BME280;10356;50.544;9.642;2023-02-21T04:22:02;98634.66;;;6.65;100.00
20394;BME280;10356;50.544;9.642;2023-02-21T04:24:29;98636.09;;;6.55;100.00
20394;BME280;10356;50.544;9.642;2023-02-21T04:26:55;98631.34;;;6.47;100.00
20394;BME280;10356;50.544;9.642;2023-02-21T04:29:24;98632.88;;;6.36;100.00
20394;BME280;10356;50.544;9.642;2023-02-21T04:31:50;98630.75;;;6.27;100.00
20394;BME280;10356;50.544;9.642;2023-02-21T04:34:18;98636.25;;;6.21;100.00
20394;BME280;10356;50.544;9.642;2023-02-21T04:36:44;98638.44;;;6.13;100.00
20394;BME280;10356;50.544;9.642;2023-02-21T04:39:11;98643.84;;;6.08;100.00
20394;BME280;10356;50.544;9.642;2023-02-21T04:41:38;98625.66;;;6.10;100.00
20394;BME280;10356;50.544;9.642;2023-02-21T04:44:05;98622.47;;;6.05;100.00
20394;BME280;10356;50.544;9.642;2023-02-21T04:46:33;98624.50;;;6.00;100.00
20394;BME280;10356;50.544;9.642;2023-02-21T04:48:59;98624.06;;;5.91;100.00
20394;BME280;10356;50.544;9.642;2023-02-21T04:51:26;98625.19;;;5.86;100.00
20394;BME280;10356;50.544;9.642;2023-02-21T04:53:53;98623.44;;;5.86;100.00
20394;BME280;10356;50.544;9.642;2023-02-21T04:56:21;98614.25;;;5.81;100.00
20394;BME280;10356;50.544;9.642;2023-02-21T04:58:48;98619.22;;;5.85;100.00
20394;BME280;10356;50.544;9.642;2023-02-21T05:01:16;98617.44;;;5.86;100.00
20394;BME280;10356;50.544;9.642;2023-02-21T05:03:45;98618.66;;;5.79;100.00
20394;BME280;10356;50.544;9.642;2023-02-21T05:06:16;98616.31;;;5.74;100.00
20394;BME280;10356;50.544;9.642;2023-02-21T05:08:43;98618.88;;;5.74;100.00
20394;BME280;10356;50.544;9.642;2023-02-21T05:11:10;98614.22;;;5.65;100.00
20394;BME280;10356;50.544;9.642;2023-02-21T05:13:36;98616.19;;;5.60;100.00
20394;BME280;10356;50.544;9.642;2023-02-21T05:16:03;98616.81;;;5.48;100.00
20394;BME280;10356;50.544;9.642;2023-02-21T05:18:30;98613.03;;;5.38;100.00
20394;BME280;10356;50.544;9.642;2023-02-21T05:21:00;98607.28;;;5.33;100.00
20394;BME280;10356;50.544;9.642;2023-02-21T05:23:26;98597.16;;;5.29;100.00
20394;BME280;10356;50.544;9.642;2023-02-21T05:25:59;98610.16;;;5.27;100.00
20394;BME280;10356;50.544;9.642;2023-02-21T05:28:26;98599.97;;;5.24;100.00
20394;BME280;10356;50.544;9.642;2023-02-21T05:30:52;98598.38;;;5.22;100.00
20394;BME280;10356;50.544;9.642;2023-02-21T05:33:19;98602.56;;;5.24;100.00
20394;BME280;10356;50.544;9.642;2023-02-21T05:35:45;98598.16;;;5.26;100.00
20394;BME280;10356;50.544;9.642;2023-02-21T05:38:14;98608.19;;;5.32;100.00
20394;BME280;10356;50.544;9.642;2023-02-21T05:40:40;98608.03;;;5.35;100.00
20394;BME280;10356;50.544;9.642;2023-02-21T05:43:07;98603.53;;;5.39;100.00
20394;BME280;10356;50.544;9.642;2023-02-21T05:45:33;98607.41;;;5.47;100.00
20394;BME280;10356;50.544;9.642;2023-02-21T05:48:00;98600.25;;;5.52;100.00
20394;BME280;10356;50.544;9.642;2023-02-21T05:50:27;98601.16;;;5.51;100.00
20394;BME280;10356;50.544;9.642;2023-02-21T05:52:54;98605.31;;;5.54;100.00
20394;BME280;10356;50.544;9.642;2023-02-21T05:55:22;98594.00;;;5.56;100.00
20394;BME280;10356;50.544;9.642;2023-02-21T05:57:48;98600.84;;;5.57;100.00
20394;BME280;10356;50.544;9.642;2023-02-21T06:00:16;98601.53;;;5.61;100.00
20394;BME280;10356;50.544;9.642;2023-02-21T06:02:42;98594.34;;;5.66;100.00
20394;BME280;10356;50.544;9.642;2023-02-21T06:05:09;98594.13;;;5.70;100.00
20394;BME280;10356;50.544;9.642;2023-02-21T06:07:36;98590.38;;;5.76;100.00
20394;BME280;10356;50.544;9.642;2023-02-21T06:10:03;98579.88;;;5.79;100.00
20394;BME280;10356;50.544;9.642;2023-02-21T06:12:31;98579.78;;;5.80;100.00
20394;BME280;10356;50.544;9.642;2023-02-21T06:14:57;98587.25;;;5.86;100.00
20394;BME280;10356;50.544;9.642;2023-02-21T06:17:24;98590.44;;;5.91;100.00
20394;BME280;10356;50.544;9.642;2023-02-21T06:19:50;98577.25;;;5.96;100.00
20394;BME280;10356;50.544;9.642;2023-02-21T06:22:17;98572.16;;;5.94;100.00
20394;BME280;10356;50.544;9.642;2023-02-21T06:24:43;98576.75;;;6.05;100.00
20394;BME280;10356;50.544;9.642;2023-02-21T06:27:10;98576.34;;;6.13;100.00
20394;BME280;10356;50.544;9.642;2023-02-21T06:29:38;98575.34;;;6.15;100.00
20394;BME280;10356;50.544;9.642;2023-02-21T06:32:04;98578.78;;;6.16;100.00
20394;BME280;10356;50.544;9.642;2023-02-21T06:34:30;98582.28;;;6.15;100.00
20394;BME280;10356;50.544;9.642;2023-02-21T06:36:57;98582.94;;;6.18;100.00
20394;BME280;10356;50.544;9.642;2023-02-21T06:39:23;98578.78;;;6.16;100.00
20394;BME280;10356;50.544;9.642;2023-02-21T06:41:50;98580.28;;;6.20;100.00
20394;BME280;10356;50.544;9.642;2023-02-21T06:44:17;98584.44;;;6.22;100.00
20394;BME280;10356;50.544;9.642;2023-02-21T06:46:47;98592.03;;;6.25;100.00
20394;BME280;10356;50.544;9.642;2023-02-21T06:49:15;98593.63;;;6.28;100.00
20394;BME280;10356;50.544;9.642;2023-02-21T06:51:41;98593.63;;;6.28;100.00
20394;BME280;10356;50.544;9.642;2023-02-21T06:54:08;98585.59;;;6.32;100.00
20394;BME280;10356;50.544;9.642;2023-02-21T06:56:35;98589.78;;;6.35;100.00
20394;BME280;10356;50.544;9.642;2023-02-21T06:59:02;98585.34;;;6.37;100.00
20394;BME280;10356;50.544;9.642;2023-02-21T07:01:29;98585.19;;;6.40;100.00
20394;BME280;10356;50.544;9.642;2023-02-21T07:03:58;98587.59;;;6.43;100.00
20394;BME280;10356;50.544;9.642;2023-02-21T07:06:24;98590.13;;;6.44;100.00
20394;BME280;10356;50.544;9.642;2023-02-21T07:08:51;98590.13;;;6.44;100.00
20394;BME280;10356;50.544;9.642;2023-02-21T07:11:18;98599.13;;;6.53;100.00
20394;BME280;10356;50.544;9.642;2023-02-21T07:13:46;98598.22;;;6.54;100.00
20394;BME280;10356;50.544;9.642;2023-02-21T07:16:14;98598.88;;;6.57;100.00
20394;BME280;10356;50.544;9.642;2023-02-21T07:18:42;98597.69;;;6.63;100.00
20394;BME280;10356;50.544;9.642;2023-02-21T07:21:10;98591.41;;;6.67;100.00
20394;BME280;10356;50.544;9.642;2023-02-21T07:23:37;98596.44;;;6.70;100.00
20394;BME280;10356;50.544;9.642;2023-02-21T07:26:04;98596.19;;;6.74;100.00
20394;BME280;10356;50.544;9.642;2023-02-21T07:28:30;98598.47;;;6.79;100.00
20394;BME280;10356;50.544;9.642;2023-02-21T07:30:57;98589.56;;;6.85;100.00
20394;BME280;10356;50.544;9.642;2023-02-21T07:33:23;98585.03;;;6.88;100.00
20394;BME280;10356;50.544;9.642;2023-02-21T07:35:50;98582.47;;;7.02;100.00
20394;BME280;10356;50.544;9.642;2023-02-21T07:38:22;98583.97;;;7.06;100.00
20394;BME280;10356;50.544;9.642;2023-02-21T07:40:49;98582.78;;;7.12;100.00
20394;BME280;10356;50.544;9.642;2023-02-21T07:43:16;98586.75;;;7.17;100.00
20394;BME280;10356;50.544;9.642;2023-02-21T07:45:42;98590.56;;;7.26;100.00
20394;BME280;10356;50.544;9.642;2023-02-21T07:48:09;98581.59;;;7.31;100.00
20394;BME280;10356;50.544;9.642;2023-02-21T07:50:38;98588.25;;;7.35;100.00
20394;BME280;10356;50.544;9.642;2023-02-21T07:53:05;98576.44;;;7.45;100.00
20394;BME280;10356;50.544;9.642;2023-02-21T07:55:33;98579.41;;;7.53;100.00
20394;BME280;10356;50.544;9.642;2023-02-21T07:58:00;98575.88;;;7.54;100.00
20394;BME280;10356;50.544;9.642;2023-02-21T08:00:26;98574.88;;;7.57;100.00
20394;BME280;10356;50.544;9.642;2023-02-21T08:02:53;98574.31;;;7.66;100.00
20394;BME280;10356;50.544;9.642;2023-02-21T08:05:20;98574.25;;;7.82;100.00
20394;BME280;10356;50.544;9.642;2023-02-21T08:07:46;98578.84;;;7.91;100.00
20394;BME280;10356;50.544;9.642;2023-02-21T08:10:19;98581.81;;;7.99;100.00
20394;BME280;10356;50.544;9.642;2023-02-21T08:12:47;98580.31;;;8.09;100.00
20394;BME280;10356;50.544;9.642;2023-02-21T08:15:14;98580.19;;;8.10;100.00
20394;BME280;10356;50.544;9.642;2023-02-21T08:17:40;98584.56;;;8.24;99.23
20394;BME280;10356;50.544;9.642;2023-02-21T08:20:07;98578.28;;;8.28;99.62
20394;BME280;10356;50.544;9.642;2023-02-21T08:22:35;98583.25;;;8.31;99.73
20394;BME280;10356;50.544;9.642;2023-02-21T08:25:02;98579.94;;;8.29;98.92
20394;BME280;10356;50.544;9.642;2023-02-21T08:27:28;98582.25;;;8.33;98.68
20394;BME280;10356;50.544;9.642;2023-02-21T08:29:56;98594.00;;;8.39;98.83
20394;BME280;10356;50.544;9.642;2023-02-21T08:32:23;98596.94;;;8.47;98.36
20394;BME280;10356;50.544;9.642;2023-02-21T08:34:49;98591.47;;;8.52;98.37
20394;BME280;10356;50.544;9.642;2023-02-21T08:37:16;98587.44;;;8.60;97.99
20394;BME280;10356;50.544;9.642;2023-02-21T08:39:44;98586.72;;;8.58;97.32
20394;BME280;10356;50.544;9.642;2023-02-21T08:42:12;98586.50;;;8.61;97.17
20394;BME280;10356;50.544;9.642;2023-02-21T08:44:38;98588.91;;;8.64;97.05
20394;BME280;10356;50.544;9.642;2023-02-21T08:47:06;98591.50;;;8.64;95.96
20394;BME280;10356;50.544;9.642;2023-02-21T08:49:33;98588.75;;;8.80;95.01
20394;BME280;10356;50.544;9.642;2023-02-21T08:52:04;98586.78;;;8.83;94.83
20394;BME280;10356;50.544;9.642;2023-02-21T08:54:30;98584.13;;;8.97;93.97
20394;BME280;10356;50.544;9.642;2023-02-21T08:56:57;98590.19;;;9.10;92.88
20394;BME280;10356;50.544;9.642;2023-02-21T08:59:23;98585.84;;;9.11;92.93
20394;BME280;10356;50.544;9.642;2023-02-21T09:01:51;98590.63;;;9.17;93.35
20394;BME280;10356;50.544;9.642;2023-02-21T09:04:19;98588.13;;;9.28;92.72
20394;BME280;10356;50.544;9.642;2023-02-21T09:06:46;98592.19;;;9.32;92.46
20394;BME280;10356;50.544;9.642;2023-02-21T09:09:12;98596.78;;;9.41;91.34
20394;BME280;10356;50.544;9.642;2023-02-21T09:11:39;98595.72;;;9.44;89.91
20394;BME280;10356;50.544;9.642;2023-02-21T09:14:08;98599.16;;;9.44;89.72
20394;BME280;10356;50.544;9.642;2023-02-21T09:16:34;98598.13;;;9.47;88.46
20394;BME280;10356;50.544;9.642;2023-02-21T09:19:01;98604.88;;;9.37;88.80
20394;BME280;10356;50.544;9.642;2023-02-21T09:21:32;98609.13;;;9.38;89.20
20394;BME280;10356;50.544;9.642;2023-02-21T09:23:59;98618.72;;;9.50;88.92
20394;BME280;10356;50.544;9.642;2023-02-21T09:26:27;98618.72;;;9.50;88.50
20394;BME280;10356;50.544;9.642;2023-02-21T09:28:57;98615.19;;;9.51;89.19
20394;BME280;10356;50.544;9.642;2023-02-21T09:31:24;98614.78;;;9.57;88.64
20394;BME280;10356;50.544;9.642;2023-02-21T09:33:50;98616.34;;;9.72;89.34
20394;BME280;10356;50.544;9.642;2023-02-21T09:36:17;98616.34;;;9.84;88.65
20394;BME280;10356;50.544;9.642;2023-02-21T09:38:49;98616.53;;;9.94;87.93
20394;BME280;10356;50.544;9.642;2023-02-21T09:41:16;98613.06;;;10.06;87.01
20394;BME280;10356;50.544;9.642;2023-02-21T09:43:44;98612.06;;;10.21;86.97
20394;BME280;10356;50.544;9.642;2023-02-21T09:46:17;98617.84;;;10.37;86.47
20394;BME280;10356;50.544;9.642;2023-02-21T09:48:46;98606.78;;;10.46;85.44
20394;BME280;10356;50.544;9.642;2023-02-21T09:51:14;98608.59;;;10.57;85.36
20394;BME280;10356;50.544;9.642;2023-02-21T09:53:42;98613.00;;;10.56;84.45
20394;BME280;10356;50.544;9.642;2023-02-21T09:56:13;98610.44;;;10.67;84.97
20394;BME280;10356;50.544;9.642;2023-02-21T09:58:43;98611.44;;;10.77;84.42
20394;BME280;10356;50.544;9.642;2023-02-21T10:01:19;98607.69;;;10.81;82.96
20394;BME280;10356;50.544;9.642;2023-02-21T10:03:53;98618.63;;;10.86;83.67
20394;BME280;10356;50.544;9.642;2023-02-21T10:06:33;98615.94;;;10.75;83.74
20394;BME280;10356;50.544;9.642;2023-02-21T10:09:07;98619.16;;;10.79;82.78
20394;BME280;10356;50.544;9.642;2023-02-21T10:11:44;98617.25;;;10.81;83.90
20394;BME280;10356;50.544;9.642;2023-02-21T10:14:24;98620.00;;;10.79;83.66
20394;BME280;10356;50.544;9.642;2023-02-21T10:16:56;98618.69;;;10.85;83.19
20394;BME280;10356;50.544;9.642;2023-02-21T10:19:29;98621.88;;;10.77;83.81
20394;BME280;10356;50.544;9.642;2023-02-21T10:21:59;98629.41;;;10.69;83.81
20394;BME280;10356;50.544;9.642;2023-02-21T10:24:27;98622.63;;;10.67;84.35
20394;BME280;10356;50.544;9.642;2023-02-21T10:27:00;98626.25;;;10.77;83.98
20394;BME280;10356;50.544;9.642;2023-02-21T10:29:36;98626.88;;;10.80;84.23
20394;BME280;10356;50.544;9.642;2023-02-21T10:32:04;98624.47;;;10.77;84.24
20394;BME280;10356;50.544;9.642;2023-02-21T10:34:32;98627.81;;;10.79;84.22
20394;BME280;10356;50.544;9.642;2023-02-21T10:37:03;98631.41;;;10.89;84.11
20394;BME280;10356;50.544;9.642;2023-02-21T10:39:35;98627.47;;;10.84;83.97
20394;BME280;10356;50.544;9.642;2023-02-21T10:42:08;98634.69;;;10.80;84.16
20394;BME280;10356;50.544;9.642;2023-02-21T10:44:38;98636.88;;;10.86;84.90
20394;BME280;10356;50.544;9.642;2023-02-21T10:47:10;98633.28;;;10.87;84.18
20394;BME280;10356;50.544;9.642;2023-02-21T10:49:45;98640.19;;;10.88;84.48
20394;BME280;10356;50.544;9.642;2023-02-21T10:52:16;98632.41;;;10.99;83.29
20394;BME280;10356;50.544;9.642;2023-02-21T10:54:59;98632.84;;;10.93;84.42
20394;BME280;10356;50.544;9.642;2023-02-21T10:57:29;98630.03;;;10.96;84.30
20394;BME280;10356;50.544;9.642;2023-02-21T10:59:56;98636.56;;;11.02;83.00
20394;BME280;10356;50.544;9.642;2023-02-21T11:02:28;98624.13;;;11.06;83.77
20394;BME280;10356;50.544;9.642;2023-02-21T11:05:07;98626.53;;;11.09;83.54
20394;BME280;10356;50.544;9.642;2023-02-21T11:07:34;98616.56;;;11.14;83.38
20394;BME280;10356;50.544;9.642;2023-02-21T11:10:01;98619.69;;;11.19;83.20
20394;BME280;10356;50.544;9.642;2023-02-21T11:12:28;98614.03;;;11.25;83.07
20394;BME280;10356;50.544;9.642;2023-02-21T11:15:09;98608.09;;;11.23;83.42
20394;BME280;10356;50.544;9.642;2023-02-21T11:17:41;98604.31;;;11.27;83.78
20394;BME280;10356;50.544;9.642;2023-02-21T11:20:16;98605.28;;;11.37;83.57
20394;BME280;10356;50.544;9.642;2023-02-21T11:22:45;98602.75;;;11.35;83.30
20394;BME280;10356;50.544;9.642;2023-02-21T11:25:19;98599.44;;;11.33;83.64
20394;BME280;10356;50.544;9.642;2023-02-21T11:28:01;98591.75;;;11.32;84.17
20394;BME280;10356;50.544;9.642;2023-02-21T11:30:29;98592.78;;;11.29;84.01
20394;BME280;10356;50.544;9.642;2023-02-21T11:32:57;98597.19;;;11.29;83.90
20394;BME280;10356;50.544;9.642;2023-02-21T11:35:28;98592.97;;;11.39;83.48
20394;BME280;10356;50.544;9.642;2023-02-21T11:37:56;98596.13;;;11.31;83.85
20394;BME280;10356;50.544;9.642;2023-02-21T11:40:26;98586.53;;;11.32;84.33
20394;BME280;10356;50.544;9.642;2023-02-21T11:43:15;98586.31;;;11.35;83.76
20394;BME280;10356;50.544;9.642;2023-02-21T11:45:50;98589.72;;;11.35;85.14
20394;BME280;10356;50.544;9.642;2023-02-21T11:48:20;98592.03;;;11.51;84.48
20394;BME280;10356;50.544;9.642;2023-02-21T11:50:56;98589.63;;;11.37;85.07
20394;BME280;10356;50.544;9.642;2023-02-21T11:53:24;98583.22;;;11.41;85.91
20394;BME280;10356;50.544;9.642;2023-02-21T11:55:57;98573.50;;;11.54;85.55
20394;BME280;10356;50.544;9.642;2023-02-21T11:58:34;98572.59;;;11.66;85.46
20394;BME280;10356;50.544;9.642;2023-02-21T12:01:07;98569.25;;;11.64;84.99
20394;BME280;10356;50.544;9.642;2023-02-21T12:03:49;98570.00;;;11.66;85.14
20394;BME280;10356;50.544;9.642;2023-02-21T12:06:25;98565.97;;;11.73;85.04
20394;BME280;10356;50.544;9.642;2023-02-21T12:08:57;98560.03;;;11.82;85.10
20394;BME280;10356;50.544;9.642;2023-02-21T12:11:33;98559.31;;;11.80;84.05
20394;BME280;10356;50.544;9.642;2023-02-21T12:14:23;98542.44;;;12.06;83.29
20394;BME280;10356;50.544;9.642;2023-02-21T12:17:02;98543.50;;;12.15;83.22
20394;BME280;10356;50.544;9.642;2023-02-21T12:19:43;98542.81;;;12.13;82.39
20394;BME280;10356;50.544;9.642;2023-02-21T12:22:25;98541.75;;;12.15;82.54
20394;BME280;10356;50.544;9.642;2023-02-21T12:25:06;98532.22;;;12.25;81.77
20394;BME280;10356;50.544;9.642;2023-02-21T12:27:42;98527.91;;;12.35;81.60
20394;BME280;10356;50.544;9.642;2023-02-21T12:30:26;98528.34;;;12.51;81.18
20394;BME280;10356;50.544;9.642;2023-02-21T12:33:07;98518.53;;;12.64;80.77
20394;BME280;10356;50.544;9.642;2023-02-21T12:35:53;98518.50;;;12.76;79.63
20394;BME280;10356;50.544;9.642;2023-02-21T12:38:30;98520.84;;;12.79;80.68
20394;BME280;10356;50.544;9.642;2023-02-21T12:41:23;98518.03;;;12.71;79.67
20394;BME280;10356;50.544;9.642;2023-02-21T12:43:59;98515.63;;;12.79;80.92
20394;BME280;10356;50.544;9.642;2023-02-21T12:46:31;98509.16;;;12.94;80.23
20394;BME280;10356;50.544;9.642;2023-02-21T12:49:03;98510.00;;;12.94;79.36
20394;BME280;10356;50.544;9.642;2023-02-21T12:51:35;98505.59;;;12.95;79.73
20394;BME280;10356;50.544;9.642;2023-02-21T12:54:05;98505.13;;;12.90;79.23
20394;BME280;10356;50.544;9.642;2023-02-21T12:56:37;98500.72;;;12.70;79.82
20394;BME280;10356;50.544;9.642;2023-02-21T12:59:12;98497.88;;;12.61;80.02
20394;BME280;10356;50.544;9.642;2023-02-21T13:01:43;98493.09;;;12.46;81.49
20394;BME280;10356;50.544;9.642;2023-02-21T13:04:17;98489.84;;;12.53;81.24
20394;BME280;10356;50.544;9.642;2023-02-21T13:06:50;98485.31;;;12.55;80.84
20394;BME280;10356;50.544;9.642;2023-02-21T13:09:24;98485.53;;;12.63;82.09
20394;BME280;10356;50.544;9.642;2023-02-21T13:11:58;98481.44;;;12.71;81.58
20394;BME280;10356;50.544;9.642;2023-02-21T13:14:31;98480.41;;;12.83;81.16
20394;BME280;10356;50.544;9.642;2023-02-21T13:16:59;98481.00;;;12.65;79.70
20394;BME280;10356;50.544;9.642;2023-02-21T13:19:33;98473.91;;;12.56;80.27
20394;BME280;10356;50.544;9.642;2023-02-21T13:25:20;98468.03;;;12.43;81.94
20394;BME280;10356;50.544;9.642;2023-02-21T13:27:55;98466.44;;;12.52;81.12
20394;BME280;10356;50.544;9.642;2023-02-21T13:30:26;98465.28;;;12.45;81.88
20394;BME280;10356;50.544;9.642;2023-02-21T13:32:57;98451.72;;;12.51;81.81
20394;BME280;10356;50.544;9.642;2023-02-21T13:35:28;98448.53;;;12.47;82.15